Time;durP1;ratioP1;P1;durP2;ratioP2;P2;SDS_P1;SDS_P2;PMS_P1;PMS_P2;Temp;Humidity;BMP_temperature;BMP_pressure;BME280_temperature;BME280_humidity;BME280_pressure;Samples;Min_cycle;Max_cycle;Signal;HPM_P1;HPM_P2
2023/08/04 00:00:11;;;;;;;6.70;6.10;;;25.90;75.30;;;;;;5130626;27;20548;-75
2023/08/04 00:02:37;;;;;;;10.98;6.15;;;25.90;76.00;;;;;;5128325;27;20179;-74
2023/08/04 00:05:04;;;;;;;6.68;5.90;;;25.70;76.20;;;;;;5130658;27;20188;-74
2023/08/04 00:07:30;;;;;;;5.78;5.20;;;25.80;75.70;;;;;;5110164;27;20267;-74
2023/08/04 00:09:55;;;;;;;5.57;5.22;;;25.80;75.10;;;;;;5110382;27;20268;-74
2023/08/04 00:12:21;;;;;;;6.35;5.80;;;25.90;75.00;;;;;;5130784;27;20246;-74
2023/08/04 00:14:48;;;;;;;6.43;5.93;;;25.90;74.90;;;;;;5129916;27;20246;-75
2023/08/04 00:17:14;;;;;;;6.35;5.53;;;26.00;74.70;;;;;;5130057;27;20177;-74
2023/08/04 00:19:40;;;;;;;6.05;5.43;;;25.90;74.90;;;;;;5126565;27;20191;-75
2023/08/04 00:22:05;;;;;;;6.07;5.78;;;26.00;74.90;;;;;;5109524;27;20655;-74
2023/08/04 00:24:31;;;;;;;5.93;5.43;;;25.90;74.80;;;;;;5128812;27;20269;-74
2023/08/04 00:26:57;;;;;;;6.18;5.72;;;25.90;75.30;;;;;;5129780;27;20300;-74
2023/08/04 00:29:22;;;;;;;6.75;5.90;;;25.70;75.60;;;;;;5127566;27;20179;-73
2023/08/04 00:31:48;;;;;;;6.22;5.72;;;25.80;75.60;;;;;;5118050;27;20176;-74
2023/08/04 00:34:14;;;;;;;6.60;6.10;;;25.80;75.00;;;;;;5130749;27;20187;-74
2023/08/04 00:36:39;;;;;;;6.18;5.78;;;25.80;74.70;;;;;;5130298;27;20576;-74
2023/08/04 00:39:05;;;;;;;6.65;6.07;;;25.90;75.30;;;;;;5130588;27;20638;-74
2023/08/04 00:41:30;;;;;;;5.90;5.50;;;25.80;74.90;;;;;;5128809;27;20173;-74
2023/08/04 00:43:56;;;;;;;7.45;5.53;;;25.80;75.20;;;;;;5128801;27;20670;-74
2023/08/04 00:46:23;;;;;;;5.65;5.28;;;25.80;75.20;;;;;;5130561;27;20568;-74
2023/08/04 00:48:48;;;;;;;6.05;5.65;;;25.80;75.50;;;;;;5130155;27;20303;-74
2023/08/04 00:51:15;;;;;;;6.57;6.03;;;25.80;76.10;;;;;;5130583;27;20604;-73
2023/08/04 00:53:41;;;;;;;6.72;6.03;;;25.70;76.10;;;;;;5129592;27;20188;-74
2023/08/04 00:56:07;;;;;;;6.53;6.03;;;25.70;76.20;;;;;;5111448;28;20595;-74
2023/08/04 00:58:33;;;;;;;5.80;5.45;;;25.70;76.50;;;;;;5110822;27;20187;-74
2023/08/04 01:01:00;;;;;;;5.55;5.15;;;25.70;76.50;;;;;;5125151;27;20670;-73
2023/08/04 01:03:27;;;;;;;6.47;5.97;;;25.70;76.50;;;;;;5125753;27;20573;-73
2023/08/04 01:06:03;;;;;;;6.18;5.60;;;25.70;76.40;;;;;;5128536;27;20181;-73
2023/08/04 01:08:34;;;;;;;7.03;6.47;;;25.70;76.30;;;;;;5125663;27;20168;-74
2023/08/04 01:11:05;;;;;;;6.25;5.75;;;25.70;76.50;;;;;;5110494;28;20184;-73
2023/08/04 01:13:31;;;;;;;6.20;5.70;;;25.70;76.60;;;;;;5130052;27;20638;-73
2023/08/04 01:15:59;;;;;;;6.00;5.45;;;25.70;76.30;;;;;;5130346;27;21395;-73
2023/08/04 01:18:24;;;;;;;6.40;6.00;;;25.60;76.90;;;;;;5130863;27;20169;-74
2023/08/04 01:20:50;;;;;;;6.40;6.03;;;25.60;77.10;;;;;;5129634;27;21509;-74
2023/08/04 01:23:16;;;;;;;6.22;5.63;;;25.60;76.80;;;;;;5128884;28;20193;-74
2023/08/04 01:25:43;;;;;;;5.47;5.18;;;25.50;77.60;;;;;;5129934;27;20193;-74
2023/08/04 01:28:13;;;;;;;6.78;6.13;;;25.50;77.10;;;;;;5129878;27;20197;-72
2023/08/04 01:30:45;;;;;;;5.88;5.38;;;25.50;76.60;;;;;;5129585;27;20185;-73
2023/08/04 01:33:13;;;;;;;5.97;5.63;;;25.50;77.00;;;;;;5125250;27;20566;-76
2023/08/04 01:35:38;;;;;;;6.32;5.90;;;25.30;77.00;;;;;;5128970;27;20196;-74
2023/08/04 01:38:04;;;;;;;5.63;5.30;;;25.30;76.20;;;;;;5129133;27;20177;-74
2023/08/04 01:40:29;;;;;;;6.75;6.22;;;25.30;77.40;;;;;;5109359;28;20604;-74
2023/08/04 01:42:55;;;;;;;6.43;6.03;;;25.30;77.20;;;;;;5129909;27;20182;-74
2023/08/04 01:45:21;;;;;;;6.90;6.32;;;25.30;77.60;;;;;;5114325;27;20181;-74
2023/08/04 01:47:48;;;;;;;6.85;6.28;;;25.20;77.70;;;;;;5132421;27;20796;-73
2023/08/04 01:50:14;;;;;;;6.50;6.10;;;25.20;77.80;;;;;;5130126;27;20585;-74
2023/08/04 01:52:40;;;;;;;5.93;5.60;;;25.20;77.60;;;;;;5132300;27;20256;-74
2023/08/04 01:55:06;;;;;;;6.10;5.70;;;25.20;77.70;;;;;;5132000;27;20658;-74
2023/08/04 01:57:31;;;;;;;6.57;6.07;;;25.20;77.70;;;;;;5111179;27;20190;-73
2023/08/04 01:59:57;;;;;;;5.65;5.15;;;25.10;77.80;;;;;;5133875;27;20185;-74
2023/08/04 02:02:23;;;;;;;6.38;5.88;;;25.10;77.80;;;;;;5115189;27;20655;-74
2023/08/04 02:04:48;;;;;;;5.88;5.53;;;25.10;78.00;;;;;;5131787;27;20181;-73
2023/08/04 02:07:14;;;;;;;6.72;6.10;;;25.10;78.10;;;;;;5130441;27;20341;-74
2023/08/04 02:09:40;;;;;;;6.00;5.53;;;25.10;78.30;;;;;;5132267;27;20618;-75
2023/08/04 02:12:06;;;;;;;6.55;5.97;;;25.10;78.30;;;;;;5131632;27;20181;-73
2023/08/04 02:14:33;;;;;;;6.93;6.43;;;25.00;78.50;;;;;;5131125;27;20308;-73
2023/08/04 02:16:59;;;;;;;6.40;6.00;;;25.00;78.50;;;;;;5113559;27;20761;-74
2023/08/04 02:19:24;;;;;;;7.30;6.60;;;25.00;78.70;;;;;;5129656;27;20300;-74
2023/08/04 02:21:50;;;;;;;6.65;6.15;;;25.00;79.00;;;;;;5131664;27;20177;-73
2023/08/04 02:24:16;;;;;;;7.35;6.75;;;25.00;79.20;;;;;;5131202;27;20176;-73
2023/08/04 02:26:44;;;;;;;7.43;6.35;;;25.00;79.00;;;;;;5132555;27;20206;-74
2023/08/04 02:29:11;;;;;;;6.95;6.35;;;24.90;79.30;;;;;;5107562;27;20672;-74
2023/08/04 02:31:37;;;;;;;6.95;6.45;;;24.90;79.50;;;;;;5114053;27;20581;-75
2023/08/04 02:34:03;;;;;;;6.88;6.30;;;24.80;79.50;;;;;;5131801;27;20177;-73
2023/08/04 02:36:29;;;;;;;7.10;6.60;;;24.80;79.80;;;;;;5129702;27;20212;-74
2023/08/04 02:38:54;;;;;;;6.55;6.05;;;24.80;79.90;;;;;;5129714;27;20670;-73
2023/08/04 02:41:20;;;;;;;8.55;6.22;;;24.80;79.90;;;;;;5131303;27;20299;-73
2023/08/04 02:43:46;;;;;;;6.80;6.30;;;24.70;79.90;;;;;;5131048;27;20297;-73
2023/08/04 02:46:12;;;;;;;7.63;6.93;;;24.70;80.10;;;;;;5113573;27;20257;-74
2023/08/04 02:48:37;;;;;;;7.35;6.75;;;24.60;80.40;;;;;;5131412;27;20189;-73
2023/08/04 02:51:04;;;;;;;7.03;6.43;;;24.60;80.30;;;;;;5130350;27;20177;-73
2023/08/04 02:53:31;;;;;;;7.55;7.03;;;24.60;80.20;;;;;;5130237;27;20184;-74
2023/08/04 02:55:57;;;;;;;8.55;7.45;;;24.60;80.20;;;;;;5131799;27;20212;-73
2023/08/04 02:58:24;;;;;;;8.07;7.30;;;24.60;80.50;;;;;;5131696;27;20275;-73
2023/08/04 03:00:50;;;;;;;8.13;6.82;;;24.60;80.60;;;;;;5132452;27;20246;-73
2023/08/04 03:03:17;;;;;;;7.72;7.03;;;24.50;80.70;;;;;;5130235;27;20177;-74
2023/08/04 03:05:43;;;;;;;7.90;7.15;;;24.50;80.90;;;;;;5131260;27;20253;-73
2023/08/04 03:08:08;;;;;;;7.85;7.15;;;24.50;80.40;;;;;;5111903;27;20177;-73
2023/08/04 03:10:34;;;;;;;7.45;6.85;;;24.40;81.00;;;;;;5131541;27;20208;-75
2023/08/04 03:13:00;;;;;;;7.38;6.78;;;24.40;81.10;;;;;;5131820;27;20196;-74
2023/08/04 03:15:25;;;;;;;8.52;7.60;;;24.40;81.10;;;;;;5130434;27;20204;-74
2023/08/04 03:17:51;;;;;;;8.52;7.72;;;24.40;81.10;;;;;;5131929;27;20185;-74
2023/08/04 03:20:17;;;;;;;8.30;7.68;;;24.40;81.20;;;;;;5132135;27;21138;-74
2023/08/04 03:22:43;;;;;;;6.78;6.38;;;24.40;81.00;;;;;;5132493;27;20181;-74
2023/08/04 03:25:09;;;;;;;8.63;7.03;;;24.30;81.40;;;;;;5132284;27;20168;-74
2023/08/04 03:27:35;;;;;;;7.35;6.75;;;24.30;81.20;;;;;;5112744;27;20188;-74
2023/08/04 03:30:02;;;;;;;9.10;7.78;;;24.30;81.20;;;;;;5129403;27;20181;-74
2023/08/04 03:32:28;;;;;;;8.93;8.10;;;24.30;81.10;;;;;;5112477;27;20195;-75
2023/08/04 03:34:53;;;;;;;9.25;7.38;;;24.30;81.30;;;;;;5130482;27;20181;-73
2023/08/04 03:37:20;;;;;;;7.63;6.97;;;24.30;81.30;;;;;;5132413;27;20182;-74
2023/08/04 03:39:45;;;;;;;8.85;7.32;;;24.20;81.30;;;;;;5129392;27;20184;-72
2023/08/04 03:42:11;;;;;;;8.88;7.38;;;24.20;81.30;;;;;;5131420;27;20177;-73
2023/08/04 03:44:36;;;;;;;7.18;6.53;;;24.20;81.30;;;;;;5130613;27;20229;-74
2023/08/04 03:47:02;;;;;;;7.90;7.20;;;24.20;81.50;;;;;;5130701;27;20195;-74
2023/08/04 03:49:28;;;;;;;6.72;6.22;;;24.30;81.20;;;;;;5128119;27;20772;-74
2023/08/04 03:51:54;;;;;;;7.72;7.13;;;24.30;81.20;;;;;;5127654;27;20272;-75
2023/08/04 03:54:19;;;;;;;8.18;7.03;;;24.30;81.20;;;;;;5131927;27;20737;-75
2023/08/04 03:57:55;;;;;;;8.32;7.20;;;24.30;82.00;;;;;;5105914;27;20324;-73
2023/08/04 04:00:21;;;;;;;8.43;7.03;;;24.30;81.20;;;;;;5112103;28;20635;-74
2023/08/04 04:02:47;;;;;;;8.32;7.60;;;24.30;80.90;;;;;;5104714;28;20190;-74
2023/08/04 04:05:13;;;;;;;7.35;6.60;;;24.30;80.90;;;;;;5106517;28;20622;-74
2023/08/04 04:07:38;;;;;;;7.07;6.53;;;24.30;80.90;;;;;;5106403;28;20197;-74
2023/08/04 04:10:06;;;;;;;7.45;6.85;;;24.30;80.60;;;;;;5108275;28;20259;-73
2023/08/04 04:12:33;;;;;;;7.82;7.05;;;24.20;79.90;;;;;;5101643;28;20212;-74
2023/08/04 04:14:59;;;;;;;8.40;7.70;;;24.30;80.50;;;;;;5107365;28;20176;-74
2023/08/04 04:17:24;;;;;;;8.32;7.63;;;24.30;80.60;;;;;;5106939;28;20197;-74
2023/08/04 04:19:50;;;;;;;8.55;7.65;;;24.40;80.80;;;;;;5107634;28;20174;-74
2023/08/04 04:22:15;;;;;;;7.57;6.78;;;24.40;80.70;;;;;;5106392;28;20174;-74
2023/08/04 04:24:41;;;;;;;8.10;7.22;;;24.40;80.60;;;;;;5108032;28;20166;-75
2023/08/04 04:27:07;;;;;;;7.93;7.32;;;24.40;80.40;;;;;;5106216;28;20185;-74
2023/08/04 04:29:33;;;;;;;7.80;7.15;;;24.50;80.20;;;;;;5106240;28;20602;-74
2023/08/04 04:31:59;;;;;;;7.68;6.97;;;24.50;80.10;;;;;;5104018;28;20185;-74
2023/08/04 04:34:24;;;;;;;7.57;6.97;;;24.50;80.20;;;;;;5106109;28;20174;-74
2023/08/04 04:36:50;;;;;;;8.05;7.15;;;24.50;80.50;;;;;;5103710;28;20214;-76
2023/08/04 04:39:16;;;;;;;6.90;6.32;;;24.60;80.20;;;;;;5105729;28;20267;-75
2023/08/04 04:41:41;;;;;;;7.57;6.90;;;24.60;79.90;;;;;;5106146;28;20714;-77
2023/08/04 04:44:07;;;;;;;8.35;7.50;;;24.70;79.80;;;;;;5107123;28;20253;-75
2023/08/04 04:46:33;;;;;;;12.82;7.30;;;24.70;79.50;;;;;;5106810;28;20255;-75
2023/08/04 04:48:58;;;;;;;7.90;7.30;;;24.80;79.50;;;;;;5106005;28;20178;-75
2023/08/04 04:51:24;;;;;;;8.32;7.57;;;24.80;79.40;;;;;;5101495;28;20178;-75
2023/08/04 04:53:50;;;;;;;8.20;6.93;;;24.80;79.40;;;;;;5106349;28;20659;-75
2023/08/04 04:56:15;;;;;;;7.65;7.03;;;24.90;79.30;;;;;;5104962;28;20737;-75
2023/08/04 04:58:41;;;;;;;7.90;7.20;;;24.90;79.30;;;;;;5099694;28;20686;-75
2023/08/04 05:01:08;;;;;;;8.25;7.53;;;25.00;79.20;;;;;;5105988;28;20250;-75
2023/08/04 05:03:33;;;;;;;9.32;8.05;;;25.00;79.20;;;;;;5102978;28;20165;-75
2023/08/04 05:06:00;;;;;;;7.47;6.95;;;25.10;79.20;;;;;;5106452;28;20583;-77
2023/08/04 05:08:26;;;;;;;8.35;7.57;;;25.10;79.00;;;;;;5096791;28;20618;-74
2023/08/04 05:10:52;;;;;;;8.10;7.28;;;25.10;79.30;;;;;;5091220;28;20183;-75
2023/08/04 05:13:18;;;;;;;8.40;7.63;;;25.20;79.30;;;;;;5089635;28;20182;-76
2023/08/04 05:15:46;;;;;;;7.47;6.93;;;25.20;79.10;;;;;;5092584;28;20263;-76
2023/08/04 05:18:12;;;;;;;12.32;7.97;;;25.20;78.90;;;;;;5085147;28;20184;-75
2023/08/04 05:20:38;;;;;;;8.80;7.97;;;25.30;78.80;;;;;;5088158;28;20178;-75
2023/08/04 05:23:03;;;;;;;8.60;7.90;;;25.30;78.90;;;;;;5089171;28;20186;-76
2023/08/04 05:25:29;;;;;;;9.05;7.90;;;25.40;78.60;;;;;;5085368;28;20174;-76
2023/08/04 05:27:55;;;;;;;8.50;7.80;;;25.40;78.60;;;;;;5088651;28;20625;-76
2023/08/04 05:30:20;;;;;;;11.52;7.30;;;25.50;78.50;;;;;;5087860;28;20193;-75
2023/08/04 05:32:46;;;;;;;7.85;7.15;;;25.50;78.60;;;;;;5089955;28;20269;-76
2023/08/04 05:35:12;;;;;;;8.50;7.80;;;25.60;78.30;;;;;;5088681;28;20191;-77
2023/08/04 05:37:38;;;;;;;8.88;7.97;;;25.60;77.90;;;;;;5090139;28;20206;-76
2023/08/04 05:40:05;;;;;;;8.77;7.85;;;25.70;78.30;;;;;;5089327;28;20182;-73
2023/08/04 05:42:31;;;;;;;8.55;7.82;;;25.70;78.00;;;;;;5086788;28;20190;-75
2023/08/04 05:44:57;;;;;;;12.18;8.00;;;25.80;78.00;;;;;;5088575;28;20236;-75
2023/08/04 05:47:25;;;;;;;8.73;7.78;;;25.80;78.20;;;;;;5093973;28;20182;-74
2023/08/04 05:49:51;;;;;;;8.38;7.68;;;25.90;77.10;;;;;;5091682;28;20171;-76
2023/08/04 05:52:17;;;;;;;9.20;8.40;;;25.90;77.70;;;;;;5091235;28;20579;-76
2023/08/04 05:54:43;;;;;;;9.52;8.50;;;26.00;77.60;;;;;;5090542;28;20190;-75
2023/08/04 05:57:08;;;;;;;9.43;8.52;;;26.00;77.50;;;;;;5091794;28;20593;-74
2023/08/04 05:59:34;;;;;;;8.70;7.90;;;26.10;77.20;;;;;;5092305;28;20180;-74
2023/08/04 06:02:00;;;;;;;9.35;8.57;;;26.20;76.90;;;;;;5093993;28;20178;-74
